Time;durP1;ratioP1;P1;durP2;ratioP2;P2;SDS_P1;SDS_P2;PMS_P1;PMS_P2;Temp;Humidity;BMP_temperature;BMP_pressure;BME280_temperature;BME280_humidity;BME280_pressure;Samples;Min_cycle;Max_cycle;Signal;HPM_P1;HPM_P2
2022/05/31 00:02:12;;;;;;;5.28;3.03;;;;;;;7.54;68.73;100941.63;4997706;28;20081;-74
2022/05/31 00:04:38;;;;;;;7.18;2.80;;;;;;;7.56;68.46;100950.34;4997026;28;20050;-74
2022/05/31 00:07:06;;;;;;;8.27;2.67;;;;;;;7.54;68.68;100946.97;4996753;28;20133;-74
2022/05/31 00:09:33;;;;;;;5.47;2.78;;;;;;;7.53;68.67;100945.28;4997025;28;20054;-75
2022/05/31 00:12:00;;;;;;;3.60;2.45;;;;;;;7.55;68.94;100952.16;4997011;28;20096;-74
2022/05/31 00:14:27;;;;;;;8.05;2.33;;;;;;;7.53;68.98;100940.78;4998253;28;20591;-73
2022/05/31 00:16:53;;;;;;;6.65;2.65;;;;;;;7.52;69.01;100943.59;4999693;28;20538;-74
2022/05/31 00:19:20;;;;;;;5.25;2.45;;;;;;;7.50;68.85;100946.41;4999594;28;20099;-74
2022/05/31 00:22:01;;;;;;;7.03;2.90;;;;;;;7.49;68.92;100950.03;4999012;28;20109;-74
2022/05/31 00:24:28;;;;;;;5.10;2.58;;;;;;;7.51;68.97;100949.91;4998994;28;20104;-73
2022/05/31 00:26:54;;;;;;;4.45;2.47;;;;;;;7.51;68.96;100953.44;4999221;28;20058;-75
2022/05/31 00:29:21;;;;;;;4.38;2.40;;;;;;;7.50;69.14;100949.06;4999012;28;20539;-74
2022/05/31 00:31:49;;;;;;;7.38;2.83;;;;;;;7.49;69.34;100950.03;4999935;28;20081;-74
2022/05/31 00:34:17;;;;;;;4.05;2.17;;;;;;;7.48;69.58;100953.69;5000657;28;20081;-74
2022/05/31 00:36:46;;;;;;;2.97;2.20;;;;;;;7.51;69.42;100944.56;5001500;28;20058;-73
2022/05/31 00:39:13;;;;;;;5.75;2.90;;;;;;;7.49;69.33;100952.69;5001066;28;20074;-73
2022/05/31 00:41:40;;;;;;;6.60;2.80;;;;;;;7.46;69.54;100950.28;5000285;28;20145;-74
2022/05/31 00:44:16;;;;;;;6.55;3.38;;;;;;;7.43;69.78;100946.09;5000726;28;20169;-74
2022/05/31 00:46:49;;;;;;;8.82;3.10;;;;;;;7.39;69.80;100957.16;4998586;28;20137;-74
2022/05/31 00:49:46;;;;;;;6.25;3.08;;;;;;;7.43;69.41;100961.28;4997243;28;20483;-74
2022/05/31 00:52:21;;;;;;;8.18;3.33;;;;;;;7.47;69.33;100952.00;4996246;28;20102;-74
2022/05/31 00:55:02;;;;;;;8.30;3.35;;;;;;;7.46;69.48;100957.47;4996098;28;20089;-74
2022/05/31 00:57:31;;;;;;;9.32;3.25;;;;;;;7.44;69.20;100949.59;4996222;28;20470;-74
2022/05/31 01:00:03;;;;;;;5.47;3.03;;;;;;;7.41;69.34;100949.88;4995904;28;20074;-74
2022/05/31 01:02:30;;;;;;;6.53;2.45;;;;;;;7.42;69.15;100948.88;4995963;28;20463;-74
2022/05/31 01:05:00;;;;;;;4.95;2.42;;;;;;;7.47;68.75;100949.34;4996172;28;20054;-74
2022/05/31 01:07:40;;;;;;;4.72;2.47;;;;;;;7.47;68.66;100954.69;4955210;29;20491;-74
2022/05/31 01:10:08;;;;;;;9.07;2.45;;;;;;;7.47;69.07;100948.50;4954910;29;20567;-75
2022/05/31 01:12:36;;;;;;;6.57;2.45;;;;;;;7.51;68.94;100944.56;4954837;29;20209;-73
2022/05/31 01:15:04;;;;;;;9.23;3.15;;;;;;;7.47;69.16;100945.84;4954494;29;20130;-73
2022/05/31 01:17:31;;;;;;;5.00;1.98;;;;;;;7.44;69.05;100952.28;4954460;29;20082;-73
2022/05/31 01:20:03;;;;;;;5.15;2.30;;;;;;;7.47;68.84;100946.66;4954757;29;20146;-73
2022/05/31 01:22:29;;;;;;;3.78;2.08;;;;;;;7.44;69.14;100944.28;4954631;29;20086;-73
2022/05/31 01:25:04;;;;;;;4.18;1.98;;;;;;;7.44;68.88;100946.94;4954638;29;20091;-74
2022/05/31 01:27:43;;;;;;;3.17;1.77;;;;;;;7.45;69.44;100947.78;4954505;29;20102;-74
2022/05/31 01:30:11;;;;;;;4.40;2.03;;;;;;;7.38;69.74;100952.81;4954731;29;20518;-74
2022/05/31 01:32:47;;;;;;;4.45;2.10;;;;;;;7.41;69.51;100957.88;4954589;29;20146;-74
2022/05/31 01:35:24;;;;;;;4.47;2.03;;;;;;;7.43;69.52;100950.59;4954291;28;20066;-74
2022/05/31 01:37:57;;;;;;;6.43;1.90;;;;;;;7.38;69.36;100948.31;4964033;28;20133;-74
2022/05/31 01:40:37;;;;;;;5.65;1.90;;;;;;;7.42;69.27;100948.88;4995286;28;20082;-75
2022/05/31 01:43:03;;;;;;;3.65;2.10;;;;;;;7.38;69.54;100947.47;4996204;28;20073;-75
2022/05/31 01:45:38;;;;;;;6.50;2.22;;;;;;;7.37;69.93;100946.63;4995367;28;20046;-74
2022/05/31 01:48:06;;;;;;;5.57;2.28;;;;;;;7.40;69.55;100943.69;4995708;28;20092;-75
2022/05/31 01:50:33;;;;;;;6.32;2.58;;;;;;;7.29;69.94;100938.47;4995927;28;20133;-74
2022/05/31 01:53:00;;;;;;;4.80;2.20;;;;;;;7.32;69.93;100945.31;4977857;28;20103;-74
2022/05/31 01:55:31;;;;;;;4.90;2.10;;;;;;;7.24;70.19;100947.81;4995259;28;20511;-74
2022/05/31 01:58:01;;;;;;;3.92;1.80;;;;;;;7.20;70.74;100944.59;4995389;28;20133;-73
2022/05/31 02:00:27;;;;;;;3.75;1.92;;;;;;;7.21;70.51;100940.94;4994799;28;20550;-74
2022/05/31 02:02:58;;;;;;;5.78;2.35;;;;;;;7.20;70.58;100941.91;4994270;28;20081;-75
2022/05/31 02:05:25;;;;;;;3.55;2.10;;;;;;;7.17;70.85;100945.69;4994939;28;20047;-74
2022/05/31 02:07:57;;;;;;;3.83;2.13;;;;;;;7.13;70.96;100938.09;4989781;28;20050;-74
2022/05/31 02:10:25;;;;;;;4.60;1.98;;;;;;;7.08;71.11;100935.78;4994673;28;20100;-74
2022/05/31 02:12:53;;;;;;;3.63;2.28;;;;;;;7.08;71.58;100937.63;4994477;28;20170;-74
2022/05/31 02:15:21;;;;;;;3.40;2.03;;;;;;;7.08;71.50;100941.13;4994557;28;20137;-74
2022/05/31 02:17:48;;;;;;;6.18;2.20;;;;;;;7.04;71.80;100936.19;4994517;28;20140;-74
2022/05/31 02:20:14;;;;;;;4.93;2.15;;;;;;;7.01;71.58;100934.63;4994649;28;20100;-74
2022/05/31 02:22:41;;;;;;;5.13;2.58;;;;;;;7.01;71.75;100939.13;4994578;28;20154;-74
2022/05/31 02:25:09;;;;;;;4.50;2.10;;;;;;;6.99;71.67;100938.44;4994304;28;20053;-74
2022/05/31 02:27:35;;;;;;;5.95;2.08;;;;;;;6.96;71.99;100934.19;4994477;28;20137;-74
2022/05/31 02:30:02;;;;;;;4.32;2.25;;;;;;;6.95;71.79;100937.84;4994705;28;20145;-74
2022/05/31 02:32:28;;;;;;;4.10;2.40;;;;;;;6.90;72.13;100942.72;4994781;28;20082;-74
2022/05/31 02:34:55;;;;;;;5.00;2.38;;;;;;;6.88;72.22;100942.84;4994619;28;20074;-74
2022/05/31 02:37:22;;;;;;;5.53;2.70;;;;;;;6.83;72.44;100947.72;4994374;28;20093;-74
2022/05/31 02:39:49;;;;;;;5.43;2.70;;;;;;;6.76;72.74;100951.03;4994303;28;20046;-74
2022/05/31 02:42:16;;;;;;;6.45;2.58;;;;;;;6.75;73.04;100947.53;4994596;28;20082;-74
2022/05/31 02:44:43;;;;;;;6.80;3.03;;;;;;;6.76;73.09;100945.72;4994626;28;20141;-74
2022/05/31 02:47:10;;;;;;;7.18;2.83;;;;;;;6.75;73.08;100955.53;4997489;28;20506;-74
2022/05/31 02:49:39;;;;;;;5.32;3.08;;;;;;;6.70;73.06;100958.59;4998475;28;20406;-74
2022/05/31 02:52:06;;;;;;;8.52;2.80;;;;;;;6.62;73.41;100954.88;4998653;28;20546;-74
2022/05/31 02:54:33;;;;;;;8.23;2.88;;;;;;;6.75;73.13;100944.88;4981324;28;20059;-74
2022/05/31 02:56:59;;;;;;;8.73;2.78;;;;;;;6.75;72.90;100955.53;4999116;28;20077;-74
2022/05/31 02:59:25;;;;;;;8.05;3.00;;;;;;;6.73;73.16;100940.63;4998150;28;20086;-74
2022/05/31 03:01:52;;;;;;;7.05;3.33;;;;;;;6.75;73.50;100950.22;4998114;28;20089;-74
2022/05/31 03:04:19;;;;;;;6.35;2.92;;;;;;;6.74;73.18;100950.31;4998813;28;20542;-74
2022/05/31 03:06:47;;;;;;;7.78;2.60;;;;;;;6.79;72.94;100945.47;4998003;28;20471;-74
2022/05/31 03:09:14;;;;;;;8.45;3.10;;;;;;;6.82;72.96;100947.88;4997506;28;20142;-74
2022/05/31 03:11:55;;;;;;;6.22;2.78;;;;;;;6.82;72.76;100945.19;4997431;28;20086;-74
2022/05/31 03:14:50;;;;;;;8.45;3.20;;;;;;;6.88;72.51;100944.69;4997352;28;20564;-74
2022/05/31 03:17:31;;;;;;;8.65;2.88;;;;;;;6.91;72.58;100947.06;4997310;28;20082;-74
2022/05/31 03:20:03;;;;;;;6.90;2.85;;;;;;;6.92;72.51;100946.09;4998549;28;20082;-74
2022/05/31 03:22:37;;;;;;;7.70;2.42;;;;;;;6.96;72.36;100936.88;4997274;28;20055;-74
2022/05/31 03:25:09;;;;;;;4.95;2.80;;;;;;;6.91;72.77;100939.94;4997679;28;20118;-74
2022/05/31 03:27:36;;;;;;;8.27;2.58;;;;;;;6.88;72.95;100940.19;4997927;28;20097;-74
2022/05/31 03:30:04;;;;;;;7.15;3.35;;;;;;;6.88;72.75;100945.53;4997306;28;20137;-74
2022/05/31 03:32:35;;;;;;;5.95;2.90;;;;;;;6.88;72.71;100939.34;4998093;28;20087;-74
2022/05/31 03:35:03;;;;;;;4.95;2.90;;;;;;;6.91;72.84;100944.41;4998160;28;20104;-74
2022/05/31 03:37:30;;;;;;;5.72;2.90;;;;;;;6.95;72.69;100941.34;4998007;28;20462;-74
2022/05/31 03:39:56;;;;;;;10.95;3.35;;;;;;;7.00;72.35;100948.13;4998162;28;20487;-74
2022/05/31 03:42:22;;;;;;;6.63;3.00;;;;;;;6.93;72.65;100953.97;4997182;28;20101;-74
2022/05/31 03:44:51;;;;;;;6.65;3.13;;;;;;;6.88;72.78;100958.88;4997527;28;20053;-74
2022/05/31 03:47:17;;;;;;;10.35;4.10;;;;;;;6.89;72.75;100957.03;4997271;28;20050;-74
2022/05/31 03:49:44;;;;;;;6.50;3.40;;;;;;;6.77;72.95;100958.06;4997444;28;20133;-74
2022/05/31 03:52:10;;;;;;;5.85;3.47;;;;;;;6.67;72.83;100958.03;4997012;28;20050;-74
2022/05/31 03:54:37;;;;;;;5.65;3.10;;;;;;;6.63;72.76;100957.44;4997448;28;20097;-74
2022/05/31 03:57:05;;;;;;;6.80;2.95;;;;;;;6.64;72.61;100966.28;4997112;28;20145;-74
2022/05/31 03:59:36;;;;;;;11.50;6.53;;;;;;;6.71;72.86;100970.09;4996678;28;20077;-74
2022/05/31 04:02:04;;;;;;;10.45;4.35;;;;;;;6.74;72.57;100963.66;4996710;28;20055;-74
2022/05/31 04:04:32;;;;;;;4.35;2.58;;;;;;;6.78;72.28;100973.09;4996675;28;20112;-74
2022/05/31 04:06:58;;;;;;;6.40;3.40;;;;;;;6.78;72.57;100973.09;4996806;28;20085;-74
2022/05/31 04:09:25;;;;;;;7.35;3.30;;;;;;;6.80;72.41;100974.66;4996773;28;20074;-74
2022/05/31 04:11:54;;;;;;;9.32;4.57;;;;;;;6.86;72.17;100974.13;4997334;28;20141;-74
2022/05/31 04:14:21;;;;;;;8.43;3.40;;;;;;;6.86;72.12;100981.28;4996602;28;20137;-74
2022/05/31 04:16:47;;;;;;;5.43;3.20;;;;;;;6.79;72.56;100977.47;4996375;28;20149;-74
2022/05/31 04:19:14;;;;;;;5.20;2.80;;;;;;;6.87;72.13;100982.97;4996173;28;20113;-75
2022/05/31 04:21:41;;;;;;;5.13;3.00;;;;;;;6.91;72.08;100977.28;4996512;28;20145;-74
2022/05/31 04:24:11;;;;;;;9.48;3.70;;;;;;;6.89;72.05;100986.38;4996612;28;20065;-74
2022/05/31 04:26:44;;;;;;;11.10;3.38;;;;;;;6.92;72.09;100983.44;4996676;28;20054;-74
2022/05/31 04:29:10;;;;;;;5.97;3.45;;;;;;;6.88;71.91;100976.69;4996583;28;20137;-74
2022/05/31 04:31:36;;;;;;;6.15;2.85;;;;;;;6.88;72.01;100979.34;4997049;28;20161;-75
2022/05/31 04:34:04;;;;;;;8.63;3.30;;;;;;;7.00;71.85;100980.13;4996450;28;20491;-75
2022/05/31 04:36:31;;;;;;;8.02;4.13;;;;;;;6.92;71.61;100983.44;4996198;28;20081;-75
2022/05/31 04:38:59;;;;;;;7.55;3.45;;;;;;;6.80;71.84;100982.66;4996956;28;20046;-75
2022/05/31 04:41:28;;;;;;;7.80;3.25;;;;;;;6.66;72.25;100981.13;4996377;28;20469;-74
2022/05/31 04:43:56;;;;;;;6.85;3.17;;;;;;;6.91;71.96;100989.75;4996503;28;20521;-75
2022/05/31 04:46:25;;;;;;;8.20;3.42;;;;;;;6.84;71.70;100985.91;4996687;28;20137;-75
2022/05/31 04:48:53;;;;;;;9.13;3.83;;;;;;;6.88;70.97;100987.34;4996278;28;20466;-75
2022/05/31 04:51:20;;;;;;;6.10;3.58;;;;;;;6.97;70.90;100986.56;4996741;28;20058;-75
2022/05/31 04:53:46;;;;;;;5.75;3.10;;;;;;;7.08;70.38;100980.31;4996316;28;20062;-74
2022/05/31 04:56:19;;;;;;;7.22;3.22;;;;;;;7.01;70.16;100979.13;4996103;28;20502;-74
2022/05/31 04:58:49;;;;;;;8.18;3.17;;;;;;;6.97;70.13;100981.22;4996128;28;20108;-75
2022/05/31 05:01:16;;;;;;;8.77;3.58;;;;;;;7.07;69.82;100987.47;4996298;28;20157;-75
2022/05/31 05:03:44;;;;;;;7.07;3.28;;;;;;;7.11;69.96;100983.56;4995545;28;20530;-74
2022/05/31 05:06:12;;;;;;;9.80;3.78;;;;;;;7.26;69.25;100986.75;4995415;28;20053;-75
2022/05/31 05:08:39;;;;;;;10.43;3.92;;;;;;;7.27;69.35;100976.91;4995322;28;20142;-75
2022/05/31 05:11:09;;;;;;;8.25;3.40;;;;;;;7.35;69.16;100987.75;4996037;28;20140;-73
2022/05/31 05:13:36;;;;;;;7.78;3.83;;;;;;;7.43;68.89;100988.81;4995936;28;20100;-74
2022/05/31 05:16:03;;;;;;;7.10;3.40;;;;;;;7.47;68.63;100978.72;4995689;28;20418;-74
2022/05/31 05:18:30;;;;;;;8.68;3.00;;;;;;;7.34;68.55;100978.91;4996536;28;20050;-74
2022/05/31 05:20:59;;;;;;;6.30;3.70;;;;;;;7.33;68.65;100979.06;4996217;28;20141;-75
2022/05/31 05:23:26;;;;;;;11.95;3.65;;;;;;;7.35;68.87;100974.41;4995752;28;20088;-73
2022/05/31 05:25:55;;;;;;;9.65;3.60;;;;;;;7.20;68.67;100976.59;4996250;28;20125;-74
2022/05/31 05:31:18;;;;;;;9.20;3.75;;;;;;;7.32;69.10;100974.69;4995604;28;20054;-73
2022/05/31 05:33:45;;;;;;;10.85;3.55;;;;;;;7.38;68.58;100979.50;4995277;28;20422;-74
2022/05/31 05:36:12;;;;;;;7.68;2.88;;;;;;;7.38;68.28;100982.16;4997979;28;20535;-74
2022/05/31 05:38:39;;;;;;;11.70;4.68;;;;;;;7.52;67.76;100981.81;4995005;28;20046;-74
2022/05/31 05:41:06;;;;;;;9.85;2.75;;;;;;;7.68;67.43;100980.47;4995066;28;20077;-73
2022/05/31 05:43:32;;;;;;;7.05;2.72;;;;;;;7.73;66.75;100989.75;4995244;28;20061;-74
2022/05/31 05:45:59;;;;;;;5.07;2.55;;;;;;;7.73;66.73;100989.75;4996221;28;20074;-74
2022/05/31 05:48:26;;;;;;;12.85;2.85;;;;;;;7.92;66.14;100978.34;4995376;28;20046;-74
2022/05/31 05:50:52;;;;;;;7.68;2.50;;;;;;;7.86;65.90;100989.56;4995234;28;20088;-73
2022/05/31 05:53:18;;;;;;;7.35;1.95;;;;;;;7.81;65.07;100989.06;4995028;28;20081;-74
2022/05/31 05:55:45;;;;;;;7.20;2.40;;;;;;;7.82;65.33;100988.13;4995177;28;20498;-73
2022/05/31 05:58:11;;;;;;;6.90;2.45;;;;;;;7.93;64.36;100996.03;4994971;28;20051;-74
2022/05/31 06:00:42;;;;;;;5.15;1.83;;;;;;;7.95;64.24;100985.22;4994778;28;20116;-75
2022/05/31 06:03:19;;;;;;;7.37;2.37;;;;;;;7.93;64.28;100989.88;4994946;28;20144;-74
2022/05/31 06:05:47;;;;;;;10.48;2.45;;;;;;;7.97;64.29;100986.78;4994454;28;20054;-73
2022/05/31 06:08:20;;;;;;;8.73;2.38;;;;;;;7.99;63.58;100989.31;4944854;28;20112;-74
2022/05/31 06:11:04;;;;;;;10.88;2.13;;;;;;;8.12;62.75;100989.88;4994750;28;20078;-74
2022/05/31 06:13:38;;;;;;;7.03;1.77;;;;;;;8.32;62.36;100988.09;4994718;28;20411;-73
2022/05/31 06:16:06;;;;;;;9.13;2.40;;;;;;;8.59;61.91;100993.59;4993995;28;20141;-73
2022/05/31 06:18:39;;;;;;;8.52;1.88;;;;;;;8.71;59.72;100998.81;4994360;28;20509;-72
2022/05/31 06:21:08;;;;;;;5.47;2.00;;;;;;;8.79;59.39;100997.13;4995884;28;20146;-72
2022/05/31 06:23:37;;;;;;;11.55;2.72;;;;;;;8.81;59.75;100991.63;4998770;28;20054;-72
2022/05/31 06:26:03;;;;;;;11.85;2.40;;;;;;;8.88;59.73;101003.44;4998545;28;20142;-73
2022/05/31 06:28:30;;;;;;;10.20;2.00;;;;;;;8.99;59.41;100989.06;4998949;28;20082;-72
2022/05/31 06:30:56;;;;;;;9.55;1.90;;;;;;;9.00;58.64;100988.09;4998690;28;20129;-72
2022/05/31 06:33:23;;;;;;;6.45;1.65;;;;;;;9.15;57.82;100985.81;4998759;28;20469;-72
2022/05/31 06:35:49;;;;;;;7.13;1.75;;;;;;;9.20;57.61;100989.75;4998670;28;20104;-73
2022/05/31 06:38:17;;;;;;;6.53;2.00;;;;;;;9.35;57.07;100990.16;4998321;28;20085;-73
2022/05/31 06:40:43;;;;;;;10.45;2.35;;;;;;;9.57;58.17;100987.09;4998164;28;20074;-72
2022/05/31 06:43:10;;;;;;;7.55;2.15;;;;;;;9.93;57.91;100995.28;4998356;28;20146;-73
2022/05/31 06:45:43;;;;;;;7.20;2.45;;;;;;;10.07;56.08;100991.25;4999258;28;20426;-72
2022/05/31 06:48:10;;;;;;;5.00;1.63;;;;;;;10.20;54.53;100997.09;4998545;28;20479;-73
2022/05/31 06:50:36;;;;;;;6.43;1.25;;;;;;;10.38;53.77;100994.41;4998555;28;20057;-72
2022/05/31 06:59:02;;;;;;;5.95;1.50;;;;;;;11.21;49.85;100994.13;4926776;29;20055;-71
2022/05/31 07:01:32;;;;;;;7.18;1.92;;;;;;;11.40;49.17;101001.97;4923895;29;20130;-72
2022/05/31 07:03:59;;;;;;;6.72;1.60;;;;;;;11.88;49.71;100989.81;4920598;29;20052;-72
2022/05/31 07:06:26;;;;;;;4.63;1.40;;;;;;;11.96;45.86;101001.59;4921456;29;20501;-72
2022/05/31 07:08:53;;;;;;;11.20;2.30;;;;;;;12.18;45.79;100995.63;4919886;29;20067;-72
2022/05/31 07:11:20;;;;;;;4.72;1.40;;;;;;;12.58;45.08;100996.69;4918936;29;20140;-72
2022/05/31 07:13:48;;;;;;;4.68;1.40;;;;;;;13.04;44.62;100994.38;4919023;29;20052;-72
2022/05/31 07:16:15;;;;;;;4.75;1.60;;;;;;;12.68;43.36;100997.38;4920218;29;20460;-72
2022/05/31 07:18:42;;;;;;;9.35;2.10;;;;;;;12.57;44.40;100992.34;4918435;29;20060;-72
2022/05/31 07:21:09;;;;;;;10.20;2.03;;;;;;;12.78;43.32;100991.88;4918422;29;20048;-72
2022/05/31 07:23:36;;;;;;;6.07;1.60;;;;;;;12.92;44.28;100984.97;4918482;29;20052;-72
2022/05/31 07:26:04;;;;;;;10.00;2.03;;;;;;;13.01;43.93;100986.66;4918803;29;20112;-72
2022/05/31 07:28:50;;;;;;;6.65;2.38;;;;;;;13.29;43.74;100979.03;4926471;28;20437;-72
2022/05/31 07:31:16;;;;;;;6.82;1.73;;;;;;;13.41;42.43;100984.88;4998702;28;20085;-72
2022/05/31 07:33:43;;;;;;;11.85;1.88;;;;;;;13.73;41.58;100989.31;5000189;28;20051;-72
2022/05/31 07:36:10;;;;;;;10.43;1.58;;;;;;;13.54;41.36;100985.19;4999669;28;20061;-72
2022/05/31 07:38:36;;;;;;;3.83;1.35;;;;;;;14.04;40.41;100984.81;4998173;28;20089;-72
2022/05/31 07:41:03;;;;;;;5.85;1.63;;;;;;;13.68;40.25;100980.94;4998468;28;20085;-72
2022/05/31 07:43:29;;;;;;;6.43;1.13;;;;;;;13.69;41.88;100975.34;4997482;28;20089;-72
2022/05/31 07:46:06;;;;;;;4.25;1.42;;;;;;;13.75;40.52;100980.06;4997183;28;20050;-72
2022/05/31 07:48:34;;;;;;;9.82;1.63;;;;;;;13.44;40.71;100979.16;4997860;28;20050;-72
2022/05/31 07:51:00;;;;;;;4.05;1.67;;;;;;;13.47;40.66;100976.94;4997455;28;20545;-72
2022/05/31 07:53:27;;;;;;;5.07;1.40;;;;;;;13.91;42.27;100972.94;4997147;28;20093;-72
2022/05/31 07:56:00;;;;;;;7.05;1.33;;;;;;;14.52;40.56;100976.59;4998201;28;20145;-72
2022/05/31 07:58:33;;;;;;;7.45;1.70;;;;;;;15.07;38.33;100978.22;4998075;28;20398;-72
2022/05/31 08:01:01;;;;;;;4.75;1.40;;;;;;;15.24;36.96;100976.19;4998363;28;20054;-72
2022/05/31 08:03:29;;;;;;;4.93;1.45;;;;;;;15.47;37.54;100979.66;4997420;28;20465;-73
2022/05/31 08:05:57;;;;;;;7.25;1.45;;;;;;;15.38;37.65;100971.81;4997768;28;20054;-72
2022/05/31 08:08:24;;;;;;;8.50;1.38;;;;;;;15.56;36.77;100969.56;4998957;28;20434;-72
2022/05/31 08:11:09;;;;;;;4.90;1.42;;;;;;;15.62;37.55;100970.69;5000973;28;20092;-72
2022/05/31 08:13:36;;;;;;;6.93;1.50;;;;;;;15.88;35.62;100968.38;5002523;28;20093;-72
2022/05/31 08:16:05;;;;;;;10.93;1.95;;;;;;;16.38;36.61;100963.09;4999723;28;20060;-72
2022/05/31 08:18:31;;;;;;;6.00;1.52;;;;;;;16.58;35.10;100972.28;5002382;28;20082;-72
2022/05/31 08:21:07;;;;;;;3.53;1.40;;;;;;;16.88;34.85;100962.13;4999216;28;20110;-73
2022/05/31 08:23:35;;;;;;;7.18;1.52;;;;;;;16.91;33.88;100960.91;4998856;28;20117;-72
2022/05/31 08:26:02;;;;;;;8.13;1.80;;;;;;;15.73;34.54;100964.00;4997636;28;20104;-73
2022/05/31 08:28:30;;;;;;;4.90;1.50;;;;;;;15.98;37.16;100951.81;4996398;28;20471;-72
2022/05/31 08:31:00;;;;;;;6.20;1.70;;;;;;;16.32;34.78;100959.28;4997533;28;20522;-72
2022/05/31 08:33:27;;;;;;;7.07;1.67;;;;;;;16.05;34.54;100963.56;4996275;28;20057;-73
2022/05/31 08:35:54;;;;;;;9.38;1.83;;;;;;;16.27;33.85;100958.19;4996491;28;20100;-72
2022/05/31 08:38:28;;;;;;;3.80;1.42;;;;;;;17.38;31.46;100958.56;4996255;28;20050;-72
2022/05/31 08:41:09;;;;;;;6.55;1.60;;;;;;;17.85;30.68;100955.03;4996846;28;20494;-73
2022/05/31 08:43:43;;;;;;;10.55;2.45;;;;;;;17.98;30.65;100949.66;4995275;28;20479;-73
2022/05/31 08:46:19;;;;;;;4.63;1.90;;;;;;;17.82;31.11;100950.00;4996748;28;20057;-72
2022/05/31 08:49:10;;;;;;;6.60;1.65;;;;;;;18.11;31.28;100946.16;5001199;28;20086;-72
2022/05/31 08:52:03;;;;;;;4.10;1.70;;;;;;;17.73;32.41;100945.78;4999205;28;20081;-73
2022/05/31 08:57:38;;;;;;;5.63;1.73;;;;;;;17.57;33.93;100930.69;4995942;28;20474;-74
2022/05/31 09:00:17;;;;;;;5.22;1.50;;;;;;;17.98;30.57;100941.50;4997183;28;20054;-76
2022/05/31 09:02:57;;;;;;;7.50;1.60;;;;;;;18.09;29.03;100935.47;4997215;28;20089;-75
2022/05/31 09:05:30;;;;;;;4.18;1.10;;;;;;;17.55;30.03;100941.75;4998793;28;20138;-75
2022/05/31 09:08:08;;;;;;;6.00;1.50;;;;;;;18.33;29.45;100929.72;5000090;28;20540;-75
2022/05/31 09:11:01;;;;;;;5.13;1.88;;;;;;;17.36;30.85;100927.03;4997914;28;20074;-75
2022/05/31 09:13:44;;;;;;;6.50;1.70;;;;;;;16.67;32.03;100930.47;4998297;28;20078;-75
2022/05/31 09:16:32;;;;;;;6.90;1.67;;;;;;;16.37;32.00;100931.66;4998634;28;20150;-74
2022/05/31 09:19:03;;;;;;;5.63;1.83;;;;;;;16.61;31.88;100931.28;4996357;28;20050;-76
2022/05/31 09:21:40;;;;;;;6.30;1.40;;;;;;;15.87;32.38;100927.97;4998047;28;20088;-75
2022/05/31 09:24:10;;;;;;;8.80;1.20;;;;;;;15.37;33.65;100921.50;4996605;28;20149;-75
2022/05/31 09:26:54;;;;;;;3.90;1.40;;;;;;;15.61;32.28;100923.88;4996329;28;20513;-75
2022/05/31 09:29:25;;;;;;;8.77;1.40;;;;;;;15.79;35.16;100917.28;4995960;28;20081;-75
2022/05/31 09:32:23;;;;;;;7.65;1.48;;;;;;;15.65;35.34;100911.69;4995803;28;20070;-75
2022/05/31 09:35:17;;;;;;;7.40;1.45;;;;;;;16.07;33.37;100922.78;4995616;28;20126;-75
2022/05/31 09:37:59;;;;;;;7.38;1.50;;;;;;;16.28;33.01;100919.25;4995699;28;20078;-75
2022/05/31 09:40:43;;;;;;;4.35;1.70;;;;;;;16.21;32.39;100904.81;4997796;28;20138;-76
2022/05/31 09:43:20;;;;;;;6.38;1.75;;;;;;;16.57;31.32;100902.88;4995953;28;20084;-75
2022/05/31 09:46:03;;;;;;;3.47;1.20;;;;;;;16.43;31.09;100901.06;4995772;28;20475;-74
2022/05/31 09:48:30;;;;;;;4.13;1.08;;;;;;;16.79;31.67;100911.00;4995813;28;20536;-75
2022/05/31 09:51:15;;;;;;;5.90;1.90;;;;;;;17.18;30.51;100902.28;4978253;28;20388;-75
2022/05/31 09:59:23;;;;;;;7.40;1.55;;;;;;;14.93;33.85;100897.97;4997348;28;20455;-75
2022/05/31 10:01:49;;;;;;;7.85;1.77;;;;;;;15.12;33.80;100893.88;4997136;28;20078;-75
2022/05/31 10:04:28;;;;;;;5.15;1.50;;;;;;;15.21;33.24;100890.91;4997579;28;20096;-75
2022/05/31 10:06:59;;;;;;;6.28;1.33;;;;;;;15.20;32.33;100888.41;4998984;28;20073;-74
2022/05/31 10:09:35;;;;;;;4.20;1.35;;;;;;;15.21;32.85;100885.50;4996930;28;20046;-75
2022/05/31 10:12:23;;;;;;;3.28;1.30;;;;;;;15.05;34.11;100880.28;4997943;28;20054;-75
2022/05/31 10:14:54;;;;;;;3.83;0.95;;;;;;;15.27;34.06;100877.69;5005297;28;20057;-74
2022/05/31 10:17:41;;;;;;;3.95;1.33;;;;;;;14.90;34.55;100882.97;5000474;28;20069;-74
2022/05/31 10:20:25;;;;;;;6.93;2.03;;;;;;;14.68;35.28;100876.59;5005818;28;20081;-73
2022/05/31 10:22:56;;;;;;;6.75;1.65;;;;;;;14.79;35.73;100867.22;5011560;28;20510;-73
2022/05/31 10:25:49;;;;;;;4.60;1.20;;;;;;;15.51;35.25;100857.63;5007062;28;20117;-73
2022/05/31 10:28:27;;;;;;;7.15;1.92;;;;;;;16.12;33.83;100858.09;5000274;28;20054;-73
2022/05/31 10:31:06;;;;;;;3.88;1.35;;;;;;;16.14;33.58;100870.41;4997787;28;20074;-74
2022/05/31 10:33:34;;;;;;;2.90;1.13;;;;;;;16.69;31.90;100856.31;4997900;28;20081;-74
2022/05/31 10:36:08;;;;;;;6.53;1.20;;;;;;;16.93;31.68;100863.16;5008916;28;20089;-74
2022/05/31 10:38:35;;;;;;;5.95;1.45;;;;;;;16.04;31.97;100855.50;5000181;28;20070;-74
2022/05/31 10:41:07;;;;;;;6.72;1.38;;;;;;;15.85;31.29;100854.28;5000611;28;20451;-74
2022/05/31 10:43:43;;;;;;;4.07;1.38;;;;;;;15.44;32.87;100852.94;4999632;28;20467;-74
2022/05/31 10:46:23;;;;;;;6.78;1.98;;;;;;;15.75;33.40;100853.75;5005977;28;20070;-74
2022/05/31 10:48:53;;;;;;;2.95;1.17;;;;;;;16.22;32.99;100849.63;5010074;28;20054;-74
2022/05/31 10:51:38;;;;;;;5.55;1.40;;;;;;;16.42;31.81;100845.25;4994639;28;20070;-74
2022/05/31 10:54:28;;;;;;;7.57;1.55;;;;;;;16.74;32.16;100837.59;5013123;28;20057;-74
2022/05/31 10:57:45;;;;;;;7.18;1.33;;;;;;;16.72;31.72;100836.97;5012345;28;20065;-74
2022/05/31 11:00:20;;;;;;;4.07;1.42;;;;;;;16.40;30.36;100831.91;4953527;29;20047;-74
2022/05/31 11:03:13;;;;;;;6.65;1.33;;;;;;;15.87;30.75;100830.56;4954382;29;20059;-74
2022/05/31 11:05:57;;;;;;;3.80;1.20;;;;;;;16.55;31.04;100826.44;4953665;29;20079;-74
2022/05/31 11:11:58;;;;;;;3.17;1.40;;;;;;;15.84;31.83;100830.94;4957412;29;20063;-74
2022/05/31 11:15:00;;;;;;;2.80;1.30;;;;;;;15.79;32.94;100828.00;4957743;29;20051;-74
2022/05/31 11:17:52;;;;;;;4.22;1.30;;;;;;;16.63;32.09;100817.31;4928666;29;20056;-73
2022/05/31 11:20:27;;;;;;;;;;;;;;;16.96;31.67;100819.41;4943175;29;20177;-74
2022/05/31 11:23:23;;;;;;;3.67;1.38;;;;;;;17.02;31.21;100822.13;4942493;29;19976;-74
2022/05/31 11:26:04;;;;;;;3.38;1.30;;;;;;;16.85;31.03;100820.78;4942447;29;20150;-74
2022/05/31 11:29:14;;;;;;;5.43;1.30;;;;;;;16.97;31.20;100821.06;4944812;29;20066;-73
2022/05/31 11:32:08;;;;;;;5.07;1.45;;;;;;;17.35;30.11;100807.94;4942769;29;20055;-73
2022/05/31 11:34:51;;;;;;;3.75;1.50;;;;;;;17.56;31.16;100804.25;4972177;28;20047;-73
2022/05/31 11:37:40;;;;;;;5.32;1.30;;;;;;;17.42;30.98;100807.97;4980534;28;20101;-73
2022/05/31 11:40:32;;;;;;;9.98;1.40;;;;;;;17.20;30.02;100804.47;4980653;28;20472;-73
2022/05/31 11:43:16;;;;;;;2.97;1.20;;;;;;;16.50;29.71;100798.22;4982876;28;20062;-73
2022/05/31 11:46:15;;;;;;;6.53;1.77;;;;;;;16.03;30.04;100795.16;4981425;28;20097;-75
2022/05/31 11:48:54;;;;;;;4.90;1.42;;;;;;;15.28;31.06;100795.56;4983837;28;20065;-74
2022/05/31 11:51:46;;;;;;;7.55;2.00;;;;;;;15.49;32.71;100790.19;4980554;28;20126;-74
2022/05/31 11:54:30;;;;;;;;;;;;;;;15.40;32.32;100792.19;4984047;28;20082;-73
2022/05/31 11:57:31;;;;;;;6.72;1.73;;;;;;;15.65;33.00;100787.28;4979997;28;20346;-73
2022/05/31 12:00:05;;;;;;;4.60;1.20;;;;;;;15.20;32.78;100793.81;4981019;28;20079;-73
2022/05/31 12:02:54;;;;;;;6.57;1.75;;;;;;;15.37;32.70;100794.44;4980464;28;20411;-73
2022/05/31 12:05:36;;;;;;;3.97;1.40;;;;;;;15.13;33.37;100782.91;4981618;28;20070;-73
2022/05/31 12:08:53;;;;;;;7.38;1.77;;;;;;;15.23;33.49;100788.03;4982411;28;20055;-73
2022/05/31 12:11:29;;;;;;;4.03;1.33;;;;;;;15.03;33.64;100779.66;4942488;29;20059;-74
2022/05/31 12:13:57;;;;;;;5.85;1.20;;;;;;;15.17;33.54;100776.09;4941238;29;20079;-74
2022/05/31 12:16:24;;;;;;;6.55;1.50;;;;;;;15.13;33.49;100780.22;4939938;29;20139;-74